createdAt,value
2022-11-17T00:01:23.142Z,8.50
2022-11-17T00:03:27.352Z,6.15
2022-11-17T00:05:28.845Z,6.75
2022-11-17T00:07:30.989Z,6.95
2022-11-17T00:09:34.437Z,5.50
2022-11-17T00:11:57.409Z,6.57
2022-11-17T00:14:17.764Z,5.28
2022-11-17T00:16:22.541Z,5.97
2022-11-17T00:18:43.101Z,5.03
2022-11-17T00:21:03.103Z,5.20
2022-11-17T00:23:06.466Z,5.32
2022-11-17T00:25:08.127Z,5.95
2022-11-17T00:27:13.087Z,5.72
2022-11-17T00:29:14.657Z,5.18
2022-11-17T00:31:37.495Z,4.75
2022-11-17T00:34:00.667Z,4.80
2022-11-17T00:36:02.315Z,5.07
2022-11-17T00:38:16.118Z,4.82
2022-11-17T00:40:20.541Z,5.93
2022-11-17T00:42:22.187Z,5.35
2022-11-17T00:44:27.118Z,5.10
2022-11-17T00:46:31.016Z,5.95
2022-11-17T00:48:32.731Z,5.28
2022-11-17T00:50:38.597Z,6.85
2022-11-17T00:52:40.212Z,5.85
2022-11-17T00:54:44.535Z,6.47
2022-11-17T00:56:46.800Z,5.95
2022-11-17T00:58:49.605Z,6.78
2022-11-17T01:00:51.357Z,6.60
2022-11-17T01:02:52.850Z,6.95
2022-11-17T01:04:54.795Z,7.75
2022-11-17T01:07:01.407Z,7.43
2022-11-17T01:09:06.342Z,8.55
2022-11-17T01:11:16.612Z,8.45
2022-11-17T01:13:18.220Z,9.63
2022-11-17T01:15:19.880Z,8.77
2022-11-17T01:17:21.351Z,7.15
2022-11-17T01:19:33.366Z,8.27
2022-11-17T01:21:35.116Z,8.60
2022-11-17T01:23:38.629Z,8.40
2022-11-17T01:25:45.315Z,8.68
2022-11-17T01:27:48.018Z,7.68
2022-11-17T01:29:49.604Z,8.90
2022-11-17T01:31:52.553Z,9.25
2022-11-17T01:33:54.912Z,8.45
2022-11-17T01:36:01.004Z,10.00
2022-11-17T01:38:04.057Z,8.45
2022-11-17T01:40:06.827Z,9.30
2022-11-17T01:42:18.701Z,8.85
2022-11-17T01:44:53.832Z,9.30
2022-11-17T01:47:00.640Z,10.55
2022-11-17T01:49:19.723Z,11.15
2022-11-17T01:51:22.883Z,10.85
2022-11-17T01:53:26.131Z,12.15
2022-11-17T01:55:37.850Z,10.02
2022-11-17T01:57:47.540Z,9.75
2022-11-17T01:59:56.301Z,9.98
2022-11-17T02:01:58.557Z,10.18
2022-11-17T02:04:03.144Z,10.02
2022-11-17T02:06:12.904Z,10.40
2022-11-17T02:08:19.566Z,10.63
2022-11-17T02:10:21.325Z,10.73
2022-11-17T02:12:26.437Z,10.60
2022-11-17T02:14:30.547Z,11.23
2022-11-17T02:16:32.289Z,10.05
2022-11-17T02:18:35.836Z,10.07
2022-11-17T02:20:44.814Z,10.98
2022-11-17T02:22:56.069Z,10.77
2022-11-17T02:25:24.280Z,9.77
2022-11-17T02:28:12.782Z,11.65
2022-11-17T02:30:18.402Z,10.43
2022-11-17T02:32:35.413Z,11.90
2022-11-17T02:34:54.606Z,11.25
2022-11-17T02:37:09.867Z,10.52
2022-11-17T02:39:31.467Z,12.77
2022-11-17T02:41:52.413Z,13.38
2022-11-17T02:44:25.168Z,11.27
2022-11-17T02:46:32.082Z,11.82
2022-11-17T02:48:38.787Z,12.45
2022-11-17T02:50:45.759Z,11.95
2022-11-17T02:52:47.510Z,12.27
2022-11-17T02:54:51.519Z,12.15
2022-11-17T02:56:53.317Z,12.70
2022-11-17T02:59:03.016Z,12.52
2022-11-17T03:01:22.635Z,10.88
2022-11-17T03:03:51.928Z,11.13
2022-11-17T03:06:07.357Z,11.35
2022-11-17T03:08:54.892Z,11.60
2022-11-17T03:11:00.238Z,12.23
2022-11-17T03:13:24.548Z,11.88
2022-11-17T03:15:36.373Z,13.23
2022-11-17T03:18:10.132Z,14.32
2022-11-17T03:20:43.424Z,12.73
2022-11-17T03:23:02.216Z,12.80
2022-11-17T03:25:08.810Z,11.63
2022-11-17T03:27:19.776Z,10.85
2022-11-17T03:29:24.896Z,12.43
2022-11-17T03:31:29.764Z,10.75
2022-11-17T03:33:32.442Z,11.20
2022-11-17T03:35:38.716Z,11.88
2022-11-17T03:37:47.441Z,11.77
2022-11-17T03:39:55.371Z,10.77
2022-11-17T03:42:21.004Z,10.35
2022-11-17T03:44:26.347Z,13.05
2022-11-17T03:46:30.555Z,10.65
2022-11-17T03:48:42.876Z,10.32
2022-11-17T03:50:55.497Z,10.35
2022-11-17T03:52:57.549Z,10.77
2022-11-17T03:55:02.334Z,10.13
2022-11-17T03:57:23.628Z,9.38
2022-11-17T03:59:33.010Z,11.02
2022-11-17T04:01:36.753Z,8.98
2022-11-17T04:03:39.732Z,11.70
2022-11-17T04:05:41.276Z,9.95
2022-11-17T04:07:45.570Z,9.88
2022-11-17T04:09:47.143Z,9.15
2022-11-17T04:12:07.376Z,11.00
2022-11-17T04:14:29.203Z,9.77
2022-11-17T04:16:31.150Z,10.65
2022-11-17T04:18:37.678Z,10.00
2022-11-17T04:20:39.190Z,9.85
2022-11-17T04:22:40.971Z,9.15
2022-11-17T04:24:42.602Z,9.38
2022-11-17T04:27:03.146Z,8.73
2022-11-17T04:29:05.972Z,9.38
2022-11-17T04:31:10.320Z,11.40
2022-11-17T04:33:11.923Z,10.98
2022-11-17T04:35:13.571Z,9.73
2022-11-17T04:37:17.908Z,8.60
2022-11-17T04:39:19.516Z,8.50
2022-11-17T04:41:42.754Z,10.52
2022-11-17T04:43:54.697Z,10.15
2022-11-17T04:46:02.176Z,7.70
2022-11-17T04:48:04.009Z,8.38
2022-11-17T04:50:06.328Z,9.52
2022-11-17T04:52:15.546Z,11.18
2022-11-17T04:54:25.736Z,9.43
2022-11-17T04:56:32.355Z,8.05
2022-11-17T04:58:37.439Z,8.57
2022-11-17T05:00:38.959Z,8.38
2022-11-17T05:02:40.677Z,8.20
2022-11-17T05:04:59.235Z,9.38
2022-11-17T05:07:00.899Z,9.32
2022-11-17T05:09:08.101Z,10.80
2022-11-17T05:11:49.406Z,8.82
2022-11-17T05:13:54.115Z,8.98
2022-11-17T05:16:18.687Z,8.90
2022-11-17T05:18:20.376Z,8.27
2022-11-17T05:20:22.160Z,8.45
2022-11-17T05:22:42.707Z,10.10
2022-11-17T05:24:44.276Z,8.38
2022-11-17T05:26:51.118Z,8.32
2022-11-17T05:28:57.085Z,7.28
2022-11-17T05:30:58.650Z,8.77
2022-11-17T05:33:03.033Z,7.78
2022-11-17T05:35:05.107Z,8.52
2022-11-17T05:37:07.744Z,8.27
2022-11-17T05:39:14.334Z,7.95
2022-11-17T05:41:21.149Z,9.63
2022-11-17T05:43:23.385Z,8.55
2022-11-17T05:45:24.951Z,8.23
2022-11-17T05:47:26.631Z,7.20
2022-11-17T05:49:28.377Z,7.43
2022-11-17T05:51:32.165Z,8.73
2022-11-17T05:53:36.416Z,7.20
2022-11-17T05:55:38.428Z,7.68
2022-11-17T05:57:40.649Z,7.35
2022-11-17T06:00:04.389Z,7.45
2022-11-17T06:02:26.836Z,6.45
2022-11-17T06:04:32.626Z,8.32
2022-11-17T06:06:39.861Z,7.60
2022-11-17T06:08:43.904Z,6.57
2022-11-17T06:10:46.011Z,7.45
2022-11-17T06:12:47.901Z,8.18
2022-11-17T06:14:52.645Z,7.72
2022-11-17T06:17:00.724Z,7.72
2022-11-17T06:19:16.349Z,7.45
2022-11-17T06:21:18.254Z,6.40
2022-11-17T06:23:30.357Z,9.18
2022-11-17T06:25:34.435Z,6.43
2022-11-17T06:27:37.761Z,6.82
2022-11-17T06:29:44.036Z,7.28
2022-11-17T06:31:49.193Z,8.00
2022-11-17T06:33:53.388Z,11.55
2022-11-17T06:36:09.497Z,7.97
2022-11-17T06:38:11.566Z,8.57
2022-11-17T06:40:13.510Z,7.90
2022-11-17T06:42:15.422Z,8.48
2022-11-17T06:44:19.619Z,7.50
2022-11-17T06:46:21.545Z,8.13
2022-11-17T06:48:26.989Z,7.95
2022-11-17T06:50:31.149Z,8.13
2022-11-17T06:52:33.042Z,7.35
2022-11-17T06:54:34.979Z,8.50
2022-11-17T06:56:37.444Z,9.10
2022-11-17T06:58:41.572Z,8.45
2022-11-17T07:00:44.405Z,8.32
2022-11-17T07:02:48.218Z,9.90
2022-11-17T07:04:50.002Z,8.18
2022-11-17T07:06:51.932Z,8.43
2022-11-17T07:08:54.061Z,9.32
2022-11-17T07:11:00.985Z,9.05
2022-11-17T07:13:03.340Z,9.98
2022-11-17T07:15:05.404Z,7.85
2022-11-17T07:17:07.212Z,8.13
2022-11-17T07:19:09.869Z,8.20
2022-11-17T07:21:13.944Z,9.65
2022-11-17T07:23:15.700Z,9.73
2022-11-17T07:25:25.228Z,9.18
2022-11-17T07:27:26.944Z,9.00
2022-11-17T07:29:30.605Z,8.98
2022-11-17T07:31:36.747Z,8.57
2022-11-17T07:33:38.496Z,8.32
2022-11-17T07:35:40.184Z,8.65
2022-11-17T07:37:41.691Z,9.52
2022-11-17T07:39:43.358Z,9.00
2022-11-17T07:41:45.095Z,9.20
2022-11-17T07:43:46.961Z,9.02
2022-11-17T07:45:48.790Z,8.90
2022-11-17T07:47:58.656Z,9.80
2022-11-17T07:50:04.431Z,8.10
2022-11-17T07:52:41.475Z,9.40
2022-11-17T07:54:54.840Z,9.65
2022-11-17T07:57:34.478Z,9.07
2022-11-17T07:59:36.335Z,9.80
2022-11-17T08:01:38.170Z,9.15
2022-11-17T08:03:40.121Z,8.73
2022-11-17T08:05:51.427Z,10.57
2022-11-17T08:08:21.133Z,10.05
2022-11-17T08:10:36.688Z,10.80
2022-11-17T08:13:05.793Z,10.07
2022-11-17T08:15:23.959Z,10.65
2022-11-17T08:17:26.022Z,9.80
2022-11-17T08:19:27.802Z,9.68
2022-11-17T08:21:29.551Z,10.00
2022-11-17T08:23:32.117Z,10.10
2022-11-17T08:25:33.833Z,8.80
2022-11-17T08:27:35.664Z,9.10
2022-11-17T08:29:37.143Z,9.48
2022-11-17T08:31:38.846Z,9.65
2022-11-17T08:33:40.448Z,9.30
2022-11-17T08:35:43.988Z,8.82
2022-11-17T08:37:45.744Z,9.18
2022-11-17T08:39:48.658Z,9.73
2022-11-17T08:41:51.894Z,8.52
2022-11-17T08:43:53.807Z,8.85
2022-11-17T08:45:58.426Z,8.73
2022-11-17T08:48:00.222Z,8.52
2022-11-17T08:50:04.292Z,8.55
2022-11-17T08:52:08.364Z,8.60
2022-11-17T08:54:12.443Z,8.55
2022-11-17T08:56:14.272Z,9.25
2022-11-17T08:58:19.141Z,7.22
2022-11-17T09:00:29.153Z,8.68
2022-11-17T09:02:33.348Z,7.22
2022-11-17T09:04:35.154Z,8.65
2022-11-17T09:06:40.791Z,8.68
2022-11-17T09:08:46.071Z,7.55
2022-11-17T09:11:01.327Z,6.70
2022-11-17T09:13:03.300Z,8.20
2022-11-17T09:15:05.915Z,7.30
2022-11-17T09:17:08.317Z,7.47
2022-11-17T09:19:09.911Z,7.20
2022-11-17T09:21:15.674Z,6.40
2022-11-17T09:23:17.274Z,6.40
2022-11-17T09:25:19.090Z,7.03
2022-11-17T09:27:25.562Z,7.70
2022-11-17T09:29:27.364Z,7.78
2022-11-17T09:31:29.263Z,6.22
2022-11-17T09:33:30.906Z,7.25
2022-11-17T09:35:33.342Z,7.28
2022-11-17T09:37:35.046Z,7.22
2022-11-17T09:39:38.911Z,7.20
2022-11-17T09:41:48.994Z,8.35
2022-11-17T09:44:06.970Z,6.75
2022-11-17T09:46:19.330Z,6.72
2022-11-17T09:48:51.981Z,7.63
2022-11-17T09:50:58.127Z,7.25
2022-11-17T09:53:28.480Z,7.53
2022-11-17T09:55:39.759Z,7.30
2022-11-17T09:57:45.796Z,7.60
2022-11-17T10:00:03.191Z,6.57
2022-11-17T10:02:10.291Z,6.72
2022-11-17T10:04:14.671Z,6.28
2022-11-17T10:06:34.749Z,6.47
2022-11-17T10:09:02.868Z,7.43
2022-11-17T10:11:28.847Z,6.75
2022-11-17T10:13:33.808Z,6.50
2022-11-17T10:15:50.923Z,6.65
2022-11-17T10:17:57.024Z,7.53
2022-11-17T10:19:58.529Z,5.25
2022-11-17T10:22:12.069Z,7.38
2022-11-17T10:24:38.449Z,7.80
2022-11-17T10:26:48.149Z,7.15
2022-11-17T10:29:08.795Z,6.20
2022-11-17T10:31:10.807Z,6.95
2022-11-17T10:33:13.450Z,6.18
2022-11-17T10:35:26.424Z,5.50
2022-11-17T10:37:30.803Z,6.03
2022-11-17T10:39:35.852Z,8.07
2022-11-17T10:41:42.894Z,5.32
2022-11-17T10:44:05.612Z,6.28
2022-11-17T10:46:16.730Z,5.97
2022-11-17T10:48:27.472Z,5.95
2022-11-17T10:50:29.194Z,6.13
2022-11-17T10:52:30.926Z,5.03
2022-11-17T10:54:32.884Z,5.28
2022-11-17T10:56:41.631Z,5.53
2022-11-17T10:58:58.286Z,5.03
2022-11-17T11:01:03.449Z,5.40
2022-11-17T11:03:05.293Z,4.63
2022-11-17T11:05:14.693Z,5.07
2022-11-17T11:07:22.155Z,4.65
2022-11-17T11:09:23.847Z,5.07
2022-11-17T11:11:36.522Z,5.32
2022-11-17T11:13:51.920Z,4.70
2022-11-17T11:15:53.905Z,4.57
2022-11-17T11:17:58.274Z,6.72
2022-11-17T11:20:00.415Z,5.47
2022-11-17T11:22:21.517Z,5.57
2022-11-17T11:24:45.116Z,5.95
2022-11-17T11:26:58.039Z,3.85
2022-11-17T11:29:09.625Z,7.30
2022-11-17T11:31:49.160Z,4.82
2022-11-17T11:34:08.563Z,3.83
2022-11-17T11:36:44.148Z,4.32
2022-11-17T11:38:55.966Z,3.40
2022-11-17T11:41:16.392Z,3.25
2022-11-17T11:43:32.082Z,4.80
2022-11-17T11:45:59.281Z,3.42
2022-11-17T11:48:15.778Z,3.40
2022-11-17T11:50:30.596Z,3.97
2022-11-17T11:52:36.899Z,3.20
2022-11-17T11:54:50.604Z,3.63
2022-11-17T11:56:56.382Z,3.13
2022-11-17T11:59:09.149Z,4.07
2022-11-17T12:01:12.089Z,2.67
2022-11-17T12:03:42.898Z,2.92
2022-11-17T12:06:41.942Z,4.15
2022-11-17T12:08:56.050Z,3.10
2022-11-17T12:11:23.033Z,3.45
2022-11-17T12:13:28.215Z,2.38
2022-11-17T12:15:32.308Z,2.65
2022-11-17T12:17:34.224Z,3.33
2022-11-17T12:19:54.429Z,2.33
2022-11-17T12:21:56.248Z,2.15
2022-11-17T12:24:10.705Z,2.35
2022-11-17T12:26:30.346Z,3.55
2022-11-17T12:30:56.064Z,2.35
2022-11-17T12:32:59.384Z,1.70
2022-11-17T12:35:24.383Z,3.47
2022-11-17T12:37:29.834Z,2.53
2022-11-17T12:39:54.625Z,4.38
2022-11-17T12:42:09.118Z,3.00
2022-11-17T12:44:36.873Z,2.58
2022-11-17T12:46:39.636Z,2.38
2022-11-17T12:48:55.820Z,4.10
2022-11-17T12:51:10.979Z,3.35
2022-11-17T12:53:18.482Z,4.03
2022-11-17T12:55:40.151Z,3.20
2022-11-17T12:57:44.090Z,4.70
2022-11-17T12:59:54.494Z,2.72
2022-11-17T13:02:17.898Z,1.80
2022-11-17T13:04:35.567Z,1.70
2022-11-17T13:06:37.412Z,1.88
2022-11-17T13:08:38.943Z,1.38
2022-11-17T13:10:41.713Z,3.58
2022-11-17T13:12:48.894Z,2.38
2022-11-17T13:15:02.092Z,4.22
2022-11-17T13:17:04.143Z,1.58
2022-11-17T13:19:39.071Z,1.63
2022-11-17T13:21:46.088Z,1.27
2022-11-17T13:23:51.300Z,1.92
2022-11-17T13:26:27.893Z,4.43
2022-11-17T13:28:32.813Z,2.17
2022-11-17T13:30:34.636Z,3.53
2022-11-17T13:32:39.023Z,2.13
2022-11-17T13:34:47.620Z,2.15
2022-11-17T13:36:57.709Z,1.83
2022-11-17T13:39:03.177Z,2.08
2022-11-17T13:41:05.894Z,2.38
2022-11-17T13:43:12.987Z,1.85
2022-11-17T13:45:15.991Z,2.03
2022-11-17T13:47:32.609Z,1.75
2022-11-17T13:49:35.122Z,1.23
2022-11-17T13:51:39.983Z,1.50
2022-11-17T13:53:44.992Z,1.35
2022-11-17T13:55:47.468Z,2.65
2022-11-17T13:58:04.996Z,1.23
2022-11-17T14:00:16.756Z,0.43
2022-11-17T14:02:26.802Z,1.08
2022-11-17T14:04:28.563Z,1.05
2022-11-17T14:07:00.906Z,0.75
2022-11-17T14:09:08.220Z,1.67
2022-11-17T14:11:09.992Z,0.88
2022-11-17T14:13:22.938Z,1.85
2022-11-17T14:15:30.229Z,0.55
2022-11-17T14:17:34.360Z,1.02
2022-11-17T14:19:36.025Z,1.77
2022-11-17T14:22:23.564Z,2.30
2022-11-17T14:24:32.987Z,1.88
2022-11-17T14:26:35.198Z,1.83
2022-11-17T14:28:36.697Z,3.05
2022-11-17T14:30:38.411Z,1.92
2022-11-17T14:32:40.223Z,2.53
2022-11-17T14:34:44.074Z,1.95
2022-11-17T14:36:47.698Z,1.00
2022-11-17T14:38:50.988Z,3.05
2022-11-17T14:40:56.397Z,5.38
2022-11-17T14:42:57.998Z,3.78
2022-11-17T14:45:00.044Z,1.95
2022-11-17T14:47:02.826Z,4.38
2022-11-17T14:49:05.122Z,4.00
2022-11-17T14:51:06.764Z,2.28
2022-11-17T14:53:13.955Z,2.30
2022-11-17T14:55:17.962Z,0.93
2022-11-17T14:57:19.990Z,0.82
2022-11-17T14:59:22.771Z,1.08
2022-11-17T15:01:31.131Z,1.20
2022-11-17T15:03:36.216Z,2.33
2022-11-17T15:05:45.468Z,1.75
2022-11-17T15:07:49.582Z,1.45
2022-11-17T15:09:54.817Z,1.70
2022-11-17T15:11:56.568Z,1.20
2022-11-17T15:14:13.205Z,1.70
2022-11-17T15:16:24.326Z,2.78
2022-11-17T15:18:25.956Z,1.90
2022-11-17T15:20:29.166Z,1.55
2022-11-17T15:22:31.145Z,2.35
2022-11-17T15:24:32.783Z,0.82
2022-11-17T15:26:35.843Z,1.75
2022-11-17T15:28:37.448Z,1.33
2022-11-17T15:30:39.423Z,1.88
2022-11-17T15:32:41.256Z,1.73
2022-11-17T15:34:43.681Z,4.25
2022-11-17T15:36:51.598Z,3.10
2022-11-17T15:38:54.121Z,2.70
2022-11-17T15:40:59.189Z,3.00
2022-11-17T15:43:05.587Z,2.80
2022-11-17T15:45:07.703Z,3.40
2022-11-17T15:47:09.317Z,2.78
2022-11-17T15:49:11.147Z,2.88
2022-11-17T15:51:18.017Z,2.20
2022-11-17T15:53:22.447Z,2.20
2022-11-17T15:55:25.489Z,3.00
2022-11-17T15:57:27.446Z,2.13
2022-11-17T15:59:29.024Z,2.35
2022-11-17T16:01:39.018Z,2.38
2022-11-17T16:03:43.027Z,1.63
2022-11-17T16:05:45.077Z,3.08
2022-11-17T16:07:50.072Z,2.53
2022-11-17T16:09:54.870Z,1.05
2022-11-17T16:11:59.083Z,1.98
2022-11-17T16:14:01.269Z,2.63
2022-11-17T16:16:04.081Z,1.70
2022-11-17T16:18:05.997Z,2.15
2022-11-17T16:20:08.429Z,3.25
2022-11-17T16:22:11.191Z,1.95
2022-11-17T16:24:13.566Z,3.17
2022-11-17T16:26:17.255Z,3.08
2022-11-17T16:28:18.937Z,3.47
2022-11-17T16:30:20.843Z,2.45
2022-11-17T16:32:22.503Z,3.45
2022-11-17T16:34:26.180Z,2.42
2022-11-17T16:36:36.513Z,1.83
2022-11-17T16:38:45.742Z,2.78
2022-11-17T16:41:01.640Z,1.85
2022-11-17T16:43:03.370Z,1.23
2022-11-17T16:45:05.657Z,1.50
2022-11-17T16:47:07.404Z,1.42
2022-11-17T16:49:12.268Z,1.70
2022-11-17T16:51:15.115Z,2.22
2022-11-17T16:53:16.833Z,3.00
2022-11-17T16:55:21.843Z,1.80
2022-11-17T16:57:23.493Z,2.25
2022-11-17T16:59:25.215Z,1.88
2022-11-17T17:01:30.449Z,3.85
2022-11-17T17:03:33.535Z,2.20
2022-11-17T17:05:40.565Z,3.25
2022-11-17T17:07:42.119Z,2.55
2022-11-17T17:09:47.028Z,3.95
2022-11-17T17:11:58.593Z,5.40
2022-11-17T17:14:05.402Z,14.40
2022-11-17T17:16:13.804Z,15.82
2022-11-17T17:18:19.198Z,15.82
2022-11-17T17:20:31.028Z,11.07
2022-11-17T17:22:32.760Z,8.95
2022-11-17T17:24:34.803Z,6.97
2022-11-17T17:26:37.370Z,7.60
2022-11-17T17:28:41.076Z,6.20
2022-11-17T17:30:42.604Z,7.50
2022-11-17T17:32:46.919Z,6.80
2022-11-17T17:34:51.797Z,5.05
2022-11-17T17:36:53.380Z,3.65
2022-11-17T17:38:57.182Z,4.00
2022-11-17T17:41:08.254Z,3.10
2022-11-17T17:43:12.611Z,3.92
2022-11-17T17:45:17.514Z,3.13
2022-11-17T17:47:20.587Z,2.50
2022-11-17T17:49:22.246Z,3.95
2022-11-17T17:51:26.242Z,3.38
2022-11-17T17:53:28.009Z,3.65
2022-11-17T17:55:31.065Z,4.30
2022-11-17T17:57:34.151Z,2.55
2022-11-17T17:59:35.984Z,3.90
2022-11-17T18:01:40.419Z,3.10
2022-11-17T18:03:44.703Z,3.28
2022-11-17T18:05:49.454Z,5.15
2022-11-17T18:07:51.251Z,6.07
2022-11-17T18:09:52.889Z,4.65
2022-11-17T18:11:54.615Z,6.43
2022-11-17T18:13:58.805Z,5.57
2022-11-17T18:16:06.380Z,4.90
2022-11-17T18:18:08.322Z,3.50
2022-11-17T18:20:10.463Z,3.35
2022-11-17T18:22:12.312Z,3.95
2022-11-17T18:24:14.506Z,3.60
2022-11-17T18:26:19.905Z,4.43
2022-11-17T18:28:25.358Z,3.47
2022-11-17T18:30:27.294Z,4.93
2022-11-17T18:32:30.348Z,3.58
2022-11-17T18:34:32.631Z,4.47
2022-11-17T18:36:35.455Z,3.42
2022-11-17T18:38:38.454Z,4.10
2022-11-17T18:40:40.138Z,4.07
2022-11-17T18:42:41.873Z,4.40
2022-11-17T18:44:44.030Z,7.07
2022-11-17T18:46:46.272Z,6.88
2022-11-17T18:48:51.238Z,5.45
2022-11-17T18:51:18.246Z,5.88
2022-11-17T18:53:14.833Z,5.68
2022-11-17T18:55:18.895Z,5.57
2022-11-17T18:57:21.676Z,5.65
2022-11-17T18:59:26.603Z,6.05
2022-11-17T19:01:30.058Z,5.57
2022-11-17T19:03:31.764Z,7.40
2022-11-17T19:05:36.261Z,7.70
2022-11-17T19:07:38.051Z,6.35
2022-11-17T19:09:41.784Z,7.90
2022-11-17T19:11:43.583Z,6.57
2022-11-17T19:13:49.199Z,6.35
2022-11-17T19:15:52.282Z,7.60
2022-11-17T19:17:56.959Z,6.47
2022-11-17T19:19:58.736Z,6.80
2022-11-17T19:22:00.758Z,7.65
2022-11-17T19:24:18.670Z,5.13
2022-11-17T19:26:29.263Z,5.38
2022-11-17T19:28:31.363Z,5.15
2022-11-17T19:30:33.551Z,3.03
2022-11-17T19:32:35.227Z,5.25
2022-11-17T19:34:37.498Z,2.92
2022-11-17T19:36:39.199Z,4.35
2022-11-17T19:38:42.937Z,4.72
2022-11-17T19:40:47.387Z,5.22
2022-11-17T19:42:51.531Z,3.08
2022-11-17T19:44:53.227Z,4.13
2022-11-17T19:46:57.588Z,4.40
2022-11-17T19:48:59.569Z,6.03
2022-11-17T19:51:10.659Z,4.75
2022-11-17T19:53:12.260Z,4.78
2022-11-17T19:55:16.602Z,3.75
2022-11-17T19:57:18.360Z,5.03
2022-11-17T19:59:22.912Z,5.50
2022-11-17T20:01:27.686Z,4.68
2022-11-17T20:03:34.401Z,5.43
2022-11-17T20:05:36.293Z,6.53
2022-11-17T20:07:42.234Z,5.82
2022-11-17T20:09:44.027Z,5.82
2022-11-17T20:11:45.813Z,6.30
2022-11-17T20:14:11.989Z,6.30
2022-11-17T20:16:54.382Z,7.10
2022-11-17T20:18:57.948Z,6.70
2022-11-17T20:21:07.389Z,7.30
2022-11-17T20:23:09.320Z,7.85
2022-11-17T20:25:12.120Z,7.90
2022-11-17T20:27:17.302Z,5.72
2022-11-17T20:29:19.119Z,5.80
2022-11-17T20:31:22.070Z,4.95
2022-11-17T20:33:25.773Z,4.13
2022-11-17T20:35:32.980Z,5.00
2022-11-17T20:37:37.777Z,4.22
2022-11-17T20:39:39.421Z,4.43
2022-11-17T20:41:41.003Z,4.78
2022-11-17T20:43:42.877Z,4.65
2022-11-17T20:45:50.192Z,4.57
2022-11-17T20:47:58.560Z,4.60
2022-11-17T20:50:00.190Z,4.35
2022-11-17T20:52:01.879Z,4.82
2022-11-17T20:54:04.121Z,4.25
2022-11-17T20:56:08.240Z,4.65
2022-11-17T20:58:09.938Z,4.35
2022-11-17T21:00:12.176Z,4.68
2022-11-17T21:02:20.754Z,4.55
2022-11-17T21:04:35.698Z,5.07
2022-11-17T21:06:40.015Z,4.03
2022-11-17T21:08:53.519Z,5.82
2022-11-17T21:11:00.370Z,4.88
2022-11-17T21:13:02.083Z,4.63
2022-11-17T21:15:04.211Z,4.03
2022-11-17T21:17:28.729Z,5.50
2022-11-17T21:19:31.690Z,5.32
2022-11-17T21:21:39.292Z,5.00
2022-11-17T21:23:41.973Z,5.30
2022-11-17T21:25:43.656Z,4.38
2022-11-17T21:27:48.489Z,6.18
2022-11-17T21:29:50.113Z,4.45
2022-11-17T21:31:51.750Z,6.00
2022-11-17T21:33:55.664Z,6.30
2022-11-17T21:36:05.467Z,5.60
2022-11-17T21:38:07.828Z,4.25
2022-11-17T21:40:09.836Z,5.30
2022-11-17T21:42:11.388Z,6.07
2022-11-17T21:44:15.236Z,4.72
2022-11-17T21:46:19.521Z,6.35
2022-11-17T21:48:21.458Z,3.80
2022-11-17T21:50:23.018Z,5.95
2022-11-17T21:52:27.341Z,4.60
2022-11-17T21:54:31.102Z,4.15
2022-11-17T21:56:33.023Z,3.97
2022-11-17T21:58:34.878Z,4.90
2022-11-17T22:00:38.791Z,5.28
2022-11-17T22:02:40.868Z,5.00
2022-11-17T22:04:42.570Z,4.22
2022-11-17T22:06:46.566Z,5.57
2022-11-17T22:08:49.181Z,6.20
2022-11-17T22:10:50.881Z,5.63
2022-11-17T22:12:52.565Z,4.43
2022-11-17T22:14:54.034Z,4.38
2022-11-17T22:16:56.402Z,4.65
2022-11-17T22:18:58.131Z,5.93
2022-11-17T22:20:59.880Z,6.85
2022-11-17T22:23:01.639Z,8.32
2022-11-17T22:25:22.825Z,4.85
2022-11-17T22:27:28.254Z,4.00
2022-11-17T22:29:30.191Z,6.85
2022-11-17T22:31:32.587Z,5.07
2022-11-17T22:33:34.416Z,5.15
2022-11-17T22:35:37.516Z,5.70
2022-11-17T22:37:39.031Z,5.22
2022-11-17T22:39:40.868Z,5.00
2022-11-17T22:41:45.445Z,5.13
2022-11-17T22:43:51.066Z,7.15
2022-11-17T22:45:52.636Z,6.72
2022-11-17T22:47:54.595Z,5.45
2022-11-17T22:49:56.152Z,5.75
2022-11-17T22:52:08.766Z,6.07
2022-11-17T22:54:10.633Z,6.70
2022-11-17T22:56:12.211Z,4.18
2022-11-17T22:58:15.845Z,13.85
2022-11-17T23:00:17.658Z,32.15
2022-11-17T23:02:21.967Z,44.45
2022-11-17T23:04:23.557Z,46.13
2022-11-17T23:06:27.195Z,45.67
2022-11-17T23:08:28.933Z,36.15
2022-11-17T23:10:33.681Z,27.42
2022-11-17T23:12:35.235Z,24.48
2022-11-17T23:14:37.308Z,18.58
2022-11-17T23:16:39.406Z,14.10
2022-11-17T23:18:41.117Z,12.00
2022-11-17T23:20:42.743Z,9.40
2022-11-17T23:22:47.090Z,9.00
2022-11-17T23:24:51.109Z,8.43
2022-11-17T23:26:52.826Z,7.88
2022-11-17T23:28:54.410Z,6.07
2022-11-17T23:31:00.560Z,6.35
2022-11-17T23:33:04.749Z,4.78
2022-11-17T23:35:06.930Z,6.07
2022-11-17T23:37:08.669Z,4.07
2022-11-17T23:39:10.577Z,3.60
2022-11-17T23:41:14.526Z,5.32
2022-11-17T23:43:16.159Z,3.75
2022-11-17T23:45:17.814Z,3.88
2022-11-17T23:47:19.559Z,4.80
2022-11-17T23:49:21.244Z,5.13
2022-11-17T23:51:27.705Z,5.03
2022-11-17T23:53:29.233Z,4.05
2022-11-17T23:55:30.770Z,5.47
2022-11-17T23:57:32.378Z,3.15
2022-11-17T23:59:34.012Z,4.60
